Time,TemperatureF,DewpointF,PressureIn,WindDirection,WindDirectionDegrees,WindSpeedMPH,WindSpeedGustMPH,Humidity,HourlyPrecipIn,Conditions,Clouds,dailyrainin,SolarRadiationWatts/m^2,SoftwareType,DateUTC
2013-03-02 00:00:00,59.4,32.4,30.19,NNE,22,1.1,1.1,36,0.00,CLR,,0.00,0.0,WeatherDisplay:10.37,2013-03-02 08:00:00,
2013-03-02 00:05:00,59.2,32.9,30.18,NNE,22,2.3,2.3,37,0.00,CLR,,0.00,0.0,WeatherDisplay:10.37,2013-03-02 08:05:00,
2013-03-02 00:10:00,59.2,32.9,30.18,NNE,22,2.3,2.3,37,0.00,CLR,,0.00,0.0,WeatherDisplay:10.37,2013-03-02 08:10:00,
2013-03-02 00:15:00,59.2,33.6,30.19,NNE,22,1.0,1.0,38,0.00,CLR,,0.00,0.0,WeatherDisplay:10.37,2013-03-02 08:15:00,
2013-03-02 00:20:00,59.0,33.4,30.19,NNE,22,0.0,0.0,38,0.00,CLR,,0.00,0.0,WeatherDisplay:10.37,2013-03-02 08:20:00,
2013-03-02 00:25:00,58.8,33.2,30.19,NNE,22,0.0,0.0,38,0.00,CLR,,0.00,0.0,WeatherDisplay:10.37,2013-03-02 08:25:00,
2013-03-02 00:30:00,58.8,32.6,30.19,NNE,22,0.0,0.0,37,0.00,CLR,,0.00,0.0,WeatherDisplay:10.37,2013-03-02 08:30:00,
2013-03-02 00:35:00,58.8,33.2,30.19,NNE,22,0.0,0.0,38,0.00,CLR,,0.00,0.0,WeatherDisplay:10.37,2013-03-02 08:35:00,
2013-03-02 00:40:00,58.5,33.0,30.19,NNE,22,2.3,0.0,38,0.00,CLR,,0.00,0.0,WeatherDisplay:10.37,2013-03-02 08:40:00,
2013-03-02 00:46:00,58.5,33.0,30.19,NNE,22,0.0,0.0,38,0.00,CLR,,0.00,0.0,WeatherDisplay:10.37,2013-03-02 08:46:00,
2013-03-02 00:51:00,58.4,32.9,30.19,NNE,22,0.0,0.0,38,0.00,CLR,,0.00,0.0,WeatherDisplay:10.37,2013-03-02 08:51:00,
2013-03-02 00:56:00,58.3,32.8,30.19,NNE,22,0.0,0.0,38,0.00,CLR,,0.00,0.0,WeatherDisplay:10.37,2013-03-02 08:56:00,
2013-03-02 01:01:00,58.3,33.4,30.19,NNE,22,1.1,1.1,39,0.00,CLR,,0.00,0.0,WeatherDisplay:10.37,2013-03-02 09:01:00,
2013-03-02 01:06:00,58.2,33.3,30.19,NNE,22,1.0,1.0,39,0.00,CLR,,0.00,0.0,WeatherDisplay:10.37,2013-03-02 09:06:00,
2013-03-02 01:11:00,58.5,33.6,30.19,NNE,22,0.0,0.0,39,0.00,CLR,,0.00,0.0,WeatherDisplay:10.37,2013-03-02 09:11:00,
2013-03-02 01:16:00,58.3,33.4,30.19,NNE,22,1.0,0.0,39,0.00,CLR,,0.00,0.0,WeatherDisplay:10.37,2013-03-02 09:16:00,
2013-03-02 01:21:00,58.6,33.0,30.19,NNE,22,1.1,0.0,38,0.00,CLR,,0.00,0.0,WeatherDisplay:10.37,2013-03-02 09:21:00,
2013-03-02 01:26:00,58.6,33.7,30.19,NNE,22,0.0,0.0,39,0.00,CLR,,0.00,0.0,WeatherDisplay:10.37,2013-03-02 09:26:00,
2013-03-02 01:31:00,58.4,33.5,30.19,NNE,22,0.0,0.0,39,0.00,CLR,,0.00,0.0,WeatherDisplay:10.37,2013-03-02 09:31:00,
2013-03-02 01:36:00,58.2,33.3,30.19,NNE,22,0.0,0.0,39,0.00,CLR,,0.00,0.0,WeatherDisplay:10.37,2013-03-02 09:36:00,
2013-03-02 01:41:00,57.8,34.2,30.19,NNE,22,0.0,0.0,41,0.00,CLR,,0.00,0.0,WeatherDisplay:10.37,2013-03-02 09:41:00,
2013-03-02 01:46:00,57.5,34.0,30.18,NNE,22,0.0,0.0,41,0.00,CLR,,0.00,0.0,WeatherDisplay:10.37,2013-03-02 09:46:00,
2013-03-02 01:51:00,57.3,34.4,30.18,NNE,22,0.0,0.0,42,0.00,CLR,,0.00,0.0,WeatherDisplay:10.37,2013-03-02 09:51:00,
2013-03-02 01:56:00,57.2,34.3,30.18,NNE,22,0.0,0.0,42,0.00,CLR,,0.00,0.0,WeatherDisplay:10.37,2013-03-02 09:56:00,
2013-03-02 02:01:00,57.1,34.2,30.18,NNE,22,0.0,0.0,42,0.00,CLR,,0.00,0.0,WeatherDisplay:10.37,2013-03-02 10:01:00,
2013-03-02 02:06:00,56.9,34.6,30.18,NNE,22,2.3,2.3,43,0.00,CLR,,0.00,0.0,WeatherDisplay:10.37,2013-03-02 10:06:00,
2013-03-02 02:11:00,56.8,34.5,30.18,NNE,22,0.0,0.0,43,0.00,CLR,,0.00,0.0,WeatherDisplay:10.37,2013-03-02 10:11:00,
2013-03-02 02:16:00,56.6,34.3,30.17,NNE,22,1.1,1.1,43,0.00,CLR,,0.00,0.0,WeatherDisplay:10.37,2013-03-02 10:16:00,
2013-03-02 02:21:00,56.8,33.3,30.17,NNE,22,1.1,1.1,41,0.00,CLR,,0.00,0.0,WeatherDisplay:10.37,2013-03-02 10:21:00,
2013-03-02 02:26:00,57.3,32.5,30.17,NNE,22,0.0,0.0,39,0.00,CLR,,0.00,0.0,WeatherDisplay:10.37,2013-03-02 10:26:00,
2013-03-02 02:31:00,57.6,32.8,30.17,NNE,22,1.0,0.0,39,0.00,CLR,,0.00,0.0,WeatherDisplay:10.37,2013-03-02 10:31:00,
2013-03-02 02:37:00,57.8,31.7,30.17,NNE,22,2.0,2.0,37,0.00,CLR,,0.00,0.0,WeatherDisplay:10.37,2013-03-02 10:37:00,
2013-03-02 02:42:00,59.0,30.6,30.16,NNE,22,3.5,3.5,34,0.00,CLR,,0.00,0.0,WeatherDisplay:10.37,2013-03-02 10:42:00,
2013-03-02 02:47:00,60.2,30.2,30.16,NNE,22,2.0,2.0,32,0.00,CLR,,0.00,0.0,WeatherDisplay:10.37,2013-03-02 10:47:00,
2013-03-02 02:52:00,60.7,29.9,30.16,NNE,22,2.3,2.3,31,0.00,CLR,,0.00,0.0,WeatherDisplay:10.37,2013-03-02 10:52:00,
2013-03-02 02:57:00,61.4,29.7,30.16,NNE,22,3.5,3.5,30,0.00,CLR,,0.00,0.0,WeatherDisplay:10.37,2013-03-02 10:57:00,
2013-03-02 03:02:00,61.8,30.0,30.16,NNE,22,3.5,3.5,30,0.00,CLR,,0.00,0.0,WeatherDisplay:10.37,2013-03-02 11:02:00,
2013-03-02 03:07:00,62.1,29.4,30.16,NE,34,3.5,3.5,29,0.00,CLR,,0.00,0.0,WeatherDisplay:10.37,2013-03-02 11:07:00,
2013-03-02 03:12:00,62.2,29.5,30.16,NE,34,2.3,2.3,29,0.00,CLR,,0.00,0.0,WeatherDisplay:10.37,2013-03-02 11:12:00,
2013-03-02 03:17:00,61.8,30.0,30.16,NE,34,1.1,0.0,30,0.00,CLR,,0.00,0.0,WeatherDisplay:10.37,2013-03-02 11:17:00,
2013-03-02 03:22:00,61.3,31.2,30.16,NE,34,0.0,0.0,32,0.00,CLR,,0.00,0.0,WeatherDisplay:10.37,2013-03-02 11:22:00,
2013-03-02 03:27:00,60.5,32.7,30.16,NE,34,1.1,1.1,35,0.00,CLR,,0.00,0.0,WeatherDisplay:10.37,2013-03-02 11:27:00,
2013-03-02 03:32:00,59.8,32.1,30.16,NE,34,1.1,1.1,35,0.00,CLR,,0.00,0.0,WeatherDisplay:10.37,2013-03-02 11:32:00,
2013-03-02 03:37:00,59.5,32.5,30.16,NE,34,1.1,1.1,36,0.00,CLR,,0.00,0.0,WeatherDisplay:10.37,2013-03-02 11:37:00,
2013-03-02 03:42:00,58.8,32.6,30.16,NE,34,1.1,0.0,37,0.00,CLR,,0.00,0.0,WeatherDisplay:10.37,2013-03-02 11:42:00,
2013-03-02 03:47:00,58.3,32.1,30.16,NE,34,1.1,1.1,37,0.00,CLR,,0.00,0.0,WeatherDisplay:10.37,2013-03-02 11:47:00,
2013-03-02 03:52:00,58.0,31.8,30.16,NE,34,1.1,1.1,37,0.00,CLR,,0.00,0.0,WeatherDisplay:10.37,2013-03-02 11:52:00,
2013-03-02 03:57:00,58.0,31.8,30.16,NE,34,1.1,1.1,37,0.00,CLR,,0.00,0.0,WeatherDisplay:10.37,2013-03-02 11:57:00,
2013-03-02 04:02:00,58.1,31.3,30.16,NE,34,0.0,0.0,36,0.00,CLR,,0.00,0.0,WeatherDisplay:10.37,2013-03-02 12:02:00,
2013-03-02 04:07:00,58.0,32.5,30.16,NE,34,0.0,0.0,38,0.00,CLR,,0.00,0.0,WeatherDisplay:10.37,2013-03-02 12:07:00,
2013-03-02 04:12:00,57.7,32.2,30.16,NE,34,0.0,0.0,38,0.00,CLR,,0.00,0.0,WeatherDisplay:10.37,2013-03-02 12:12:00,
2013-03-02 04:17:00,57.4,32.6,30.16,NE,34,0.0,0.0,39,0.00,CLR,,0.00,0.0,WeatherDisplay:10.37,2013-03-02 12:17:00,
2013-03-02 04:22:00,57.6,31.5,30.16,NE,34,2.3,2.3,37,0.00,CLR,,0.00,0.0,WeatherDisplay:10.37,2013-03-02 12:22:00,
2013-03-02 04:27:00,57.8,33.6,30.16,NE,34,0.0,0.0,40,0.00,CLR,,0.00,0.0,WeatherDisplay:10.37,2013-03-02 12:27:00,
2013-03-02 04:32:00,57.4,33.3,30.17,NE,34,0.0,0.0,40,0.00,CLR,,0.00,0.0,WeatherDisplay:10.37,2013-03-02 12:32:00,
2013-03-02 04:37:00,56.7,33.8,30.17,NE,34,0.0,0.0,42,0.00,CLR,,0.00,0.0,WeatherDisplay:10.37,2013-03-02 12:37:00,
2013-03-02 04:42:00,56.1,33.9,30.17,NE,34,1.1,1.1,43,0.00,CLR,,0.00,0.0,WeatherDisplay:10.37,2013-03-02 12:42:00,
2013-03-02 04:47:00,55.7,33.5,30.17,NE,34,1.1,0.0,43,0.00,CLR,,0.00,0.0,WeatherDisplay:10.37,2013-03-02 12:47:00,
2013-03-02 04:52:00,55.3,33.7,30.17,NE,34,0.0,0.0,44,0.00,CLR,,0.00,0.0,WeatherDisplay:10.37,2013-03-02 12:52:00,
2013-03-02 04:57:00,55.0,34.0,30.17,NE,34,0.0,0.0,45,0.00,CLR,,0.00,0.0,WeatherDisplay:10.37,2013-03-02 12:57:00,
2013-03-02 05:02:00,54.8,33.8,30.17,NE,34,0.0,0.0,45,0.00,CLR,,0.00,0.0,WeatherDisplay:10.37,2013-03-02 13:02:00,
2013-03-02 05:07:00,54.5,34.7,30.17,NE,34,0.0,0.0,47,0.00,CLR,,0.00,0.0,WeatherDisplay:10.37,2013-03-02 13:07:00,
2013-03-02 05:12:00,54.4,34.6,30.17,NE,34,0.0,0.0,47,0.00,CLR,,0.00,0.0,WeatherDisplay:10.37,2013-03-02 13:12:00,
2013-03-02 05:17:00,54.2,34.4,30.17,NE,34,0.0,0.0,47,0.00,CLR,,0.00,0.0,WeatherDisplay:10.37,2013-03-02 13:17:00,
2013-03-02 05:22:00,53.9,34.6,30.18,NE,34,1.1,1.1,48,0.00,CLR,,0.00,0.0,WeatherDisplay:10.37,2013-03-02 13:22:00,
2013-03-02 05:27:00,54.1,34.8,30.18,NE,34,1.1,1.1,48,0.00,CLR,,0.00,0.0,WeatherDisplay:10.37,2013-03-02 13:27:00,
2013-03-02 05:32:00,54.1,34.8,30.18,NE,34,2.0,2.0,48,0.00,CLR,,0.00,0.0,WeatherDisplay:10.37,2013-03-02 13:32:00,
2013-03-02 05:37:00,53.8,34.6,30.17,NE,34,2.0,2.0,48,0.00,CLR,,0.00,0.0,WeatherDisplay:10.37,2013-03-02 13:37:00,
2013-03-02 05:42:00,53.8,34.6,30.17,NE,34,1.1,1.1,48,0.00,CLR,,0.00,0.0,WeatherDisplay:10.37,2013-03-02 13:42:00,
2013-03-02 05:47:00,53.8,34.6,30.18,NE,34,1.1,0.0,48,0.00,CLR,,0.00,0.0,WeatherDisplay:10.37,2013-03-02 13:47:00,
2013-03-02 05:52:00,53.7,35.0,30.18,NE,34,2.3,2.3,49,0.00,CLR,,0.00,0.0,WeatherDisplay:10.37,2013-03-02 13:52:00,
2013-03-02 05:57:00,53.4,34.7,30.17,NE,34,1.1,1.1,49,0.00,CLR,,0.00,0.0,WeatherDisplay:10.37,2013-03-02 13:57:00,
2013-03-02 06:02:00,53.3,35.1,30.17,NE,34,1.1,0.0,50,0.00,CLR,,0.00,0.0,WeatherDisplay:10.37,2013-03-02 14:02:00,
2013-03-02 06:07:00,53.5,34.8,30.18,NE,34,2.0,2.0,49,0.00,CLR,,0.00,0.0,WeatherDisplay:10.37,2013-03-02 14:07:00,
2013-03-02 06:12:00,53.8,34.6,30.18,NE,34,1.1,0.0,48,0.00,CLR,,0.00,0.0,WeatherDisplay:10.37,2013-03-02 14:12:00,
2013-03-02 06:17:00,53.9,35.2,30.18,NE,34,1.1,1.1,49,0.00,CLR,,0.00,0.0,WeatherDisplay:10.37,2013-03-02 14:17:00,
2013-03-02 06:22:00,53.9,35.2,30.18,NE,34,1.1,1.1,49,0.00,CLR,,0.00,5.0,WeatherDisplay:10.37,2013-03-02 14:22:00,
2013-03-02 06:27:00,53.9,35.2,30.18,NE,34,1.1,0.0,49,0.00,SCT,,0.00,9.0,WeatherDisplay:10.37,2013-03-02 14:27:00,
2013-03-02 06:32:00,54.0,34.7,30.18,NE,34,2.3,2.3,48,0.00,SCT,,0.00,11.0,WeatherDisplay:10.37,2013-03-02 14:32:00,
2013-03-02 06:37:00,54.6,34.8,30.18,NE,34,2.3,2.3,47,0.00,BKN,,0.00,14.0,WeatherDisplay:10.37,2013-03-02 14:37:00,
2013-03-02 06:42:00,54.9,34.5,30.18,NE,34,2.3,2.3,46,0.00,BKN,,0.00,16.0,WeatherDisplay:10.37,2013-03-02 14:42:00,
2013-03-02 06:47:00,55.1,34.7,30.18,NE,34,2.3,2.3,46,0.00,BKN,,0.00,28.0,WeatherDisplay:10.37,2013-03-02 14:47:00,
2013-03-02 06:52:00,55.3,35.4,30.18,NE,34,1.1,0.0,47,0.00,SCT,,0.00,39.0,WeatherDisplay:10.37,2013-03-02 14:52:00,
2013-03-02 06:57:00,55.5,35.6,30.19,NE,34,0.0,0.0,47,0.00,SCT,,0.00,51.0,WeatherDisplay:10.37,2013-03-02 14:57:00,
2013-03-02 07:02:00,55.9,35.4,30.19,NNE,33,0.0,0.0,46,0.00,SCT,,0.00,69.0,WeatherDisplay:10.37,2013-03-02 15:02:00,
2013-03-02 07:07:00,56.4,35.9,30.19,NNE,33,0.0,0.0,46,0.00,FEW,,0.00,83.0,WeatherDisplay:10.37,2013-03-02 15:07:00,
2013-03-02 07:12:00,57.3,35.6,30.19,NNE,33,0.0,0.0,44,0.00,FEW,,0.00,102.0,WeatherDisplay:10.37,2013-03-02 15:12:00,
2013-03-02 07:17:00,58.5,36.1,30.19,NNE,33,0.0,0.0,43,0.00,CLR,,0.00,121.0,WeatherDisplay:10.37,2013-03-02 15:17:00,
2013-03-02 07:22:00,59.8,36.0,30.19,NNE,33,0.0,0.0,41,0.00,CLR,,0.00,142.0,WeatherDisplay:10.37,2013-03-02 15:22:00,
2013-03-02 07:27:00,61.3,35.5,30.19,NE,34,0.0,0.0,38,0.00,CLR,,0.00,165.0,WeatherDisplay:10.37,2013-03-02 15:27:00,
2013-03-02 07:32:00,62.7,36.0,30.19,NE,35,0.0,0.0,37,0.00,CLR,,0.00,188.0,WeatherDisplay:10.37,2013-03-02 15:32:00,
2013-03-02 07:37:00,63.8,36.3,30.19,NE,35,1.1,1.1,36,0.00,CLR,,0.00,209.0,WeatherDisplay:10.37,2013-03-02 15:37:00,
2013-03-02 07:42:00,63.9,35.0,30.19,NE,35,2.3,2.3,34,0.00,CLR,,0.00,227.0,WeatherDisplay:10.37,2013-03-02 15:42:00,
2013-03-02 07:47:00,63.9,34.2,30.19,NE,34,2.3,2.3,33,0.00,CLR,,0.00,248.0,WeatherDisplay:10.37,2013-03-02 15:47:00,
2013-03-02 07:52:00,64.2,33.7,30.19,NE,34,1.1,1.1,32,0.00,CLR,,0.00,269.0,WeatherDisplay:10.37,2013-03-02 15:52:00,
2013-03-02 07:57:00,64.8,34.2,30.19,NE,34,2.3,2.3,32,0.00,CLR,,0.00,287.0,WeatherDisplay:10.37,2013-03-02 15:57:00,
2013-03-02 08:02:00,65.3,33.9,30.19,NE,35,1.1,0.0,31,0.00,CLR,,0.00,304.0,WeatherDisplay:10.37,2013-03-02 16:02:00,
2013-03-02 08:07:00,65.8,34.3,30.19,NE,34,2.3,2.3,31,0.00,CLR,,0.00,320.0,WeatherDisplay:10.37,2013-03-02 16:07:00,
2013-03-02 08:12:00,66.1,36.1,30.20,NNE,32,1.1,1.1,33,0.00,CLR,,0.00,338.0,WeatherDisplay:10.37,2013-03-02 16:12:00,
2013-03-02 08:17:00,66.4,34.8,30.20,NNE,24,3.5,3.5,31,0.00,CLR,,0.00,355.0,WeatherDisplay:10.37,2013-03-02 16:17:00,
2013-03-02 08:22:00,66.9,35.3,30.20,NNE,22,2.3,2.3,31,0.00,CLR,,0.00,371.0,WeatherDisplay:10.37,2013-03-02 16:22:00,
2013-03-02 08:27:00,67.4,35.7,30.20,NNE,22,2.3,2.3,31,0.00,CLR,,0.00,388.0,WeatherDisplay:10.37,2013-03-02 16:27:00,
2013-03-02 08:32:00,67.9,35.3,30.19,North,5,3.5,3.5,30,0.00,CLR,,0.00,406.0,WeatherDisplay:10.37,2013-03-02 16:32:00,
2013-03-02 08:37:00,68.5,35.0,30.19,WNW,303,2.3,2.3,29,0.00,CLR,,0.00,380.0,WeatherDisplay:10.37,2013-03-02 16:37:00,
2013-03-02 08:42:00,69.2,34.7,30.19,WNW,298,3.5,3.5,28,0.00,CLR,,0.00,424.0,WeatherDisplay:10.37,2013-03-02 16:42:00,
2013-03-02 08:47:00,69.8,35.2,30.19,WNW,288,2.3,2.3,28,0.00,CLR,,0.00,448.0,WeatherDisplay:10.37,2013-03-02 16:47:00,
2013-03-02 08:52:00,70.4,34.8,30.19,West,260,3.5,3.5,27,0.00,CLR,,0.00,455.0,WeatherDisplay:10.37,2013-03-02 16:52:00,
2013-03-02 08:57:00,71.0,34.4,30.19,West,260,1.1,1.1,26,0.00,CLR,,0.00,464.0,WeatherDisplay:10.37,2013-03-02 16:57:00,
2013-03-02 09:03:00,71.6,33.9,30.19,West,260,2.3,2.3,25,0.00,CLR,,0.00,494.0,WeatherDisplay:10.37,2013-03-02 17:03:00,
2013-03-02 09:08:00,72.2,35.4,30.19,WSW,249,2.3,2.3,26,0.00,CLR,,0.00,508.0,WeatherDisplay:10.37,2013-03-02 17:08:00,
2013-03-02 09:13:00,72.7,35.8,30.19,SSE,152,4.0,4.0,26,0.00,CLR,,0.00,527.0,WeatherDisplay:10.37,2013-03-02 17:13:00,
2013-03-02 09:18:00,73.1,35.2,30.19,South,187,3.5,3.5,25,0.00,CLR,,0.00,548.0,WeatherDisplay:10.37,2013-03-02 17:18:00,
2013-03-02 09:23:00,73.3,35.3,30.19,SSW,194,3.5,3.5,25,0.00,CLR,,0.00,554.0,WeatherDisplay:10.37,2013-03-02 17:23:00,
2013-03-02 09:28:00,73.5,36.5,30.19,South,180,3.5,3.5,26,0.00,CLR,,0.00,543.0,WeatherDisplay:10.37,2013-03-02 17:28:00,
2013-03-02 09:33:00,73.5,36.5,30.19,South,178,3.5,3.5,26,0.00,CLR,,0.00,564.0,WeatherDisplay:10.37,2013-03-02 17:33:00,
2013-03-02 09:38:00,73.7,35.7,30.19,South,189,3.5,3.5,25,0.00,CLR,,0.00,571.0,WeatherDisplay:10.37,2013-03-02 17:38:00,
2013-03-02 09:43:00,74.1,36.0,30.19,SSW,202,3.5,3.5,25,0.00,FEW,,0.00,490.0,WeatherDisplay:10.37,2013-03-02 17:43:00,
2013-03-02 09:48:00,74.3,35.2,30.19,SE,146,3.5,3.5,24,0.00,CLR,,0.00,515.0,WeatherDisplay:10.37,2013-03-02 17:48:00,
2013-03-02 09:53:00,74.6,35.4,30.19,SE,138,4.0,4.0,24,0.00,CLR,,0.00,608.0,WeatherDisplay:10.37,2013-03-02 17:53:00,
2013-03-02 09:58:00,74.8,35.6,30.19,SSW,205,5.8,5.8,24,0.00,CLR,,0.00,633.0,WeatherDisplay:10.37,2013-03-02 17:58:00,
2013-03-02 10:03:00,75.0,33.6,30.19,South,184,4.6,4.6,22,0.00,CLR,,0.00,659.0,WeatherDisplay:10.37,2013-03-02 18:03:00,
2013-03-02 10:08:00,75.6,34.1,30.19,SSW,202,3.5,3.5,22,0.00,CLR,,0.00,673.0,WeatherDisplay:10.37,2013-03-02 18:08:00,
2013-03-02 10:13:00,76.2,33.4,30.19,SSW,202,5.0,5.0,21,0.00,CLR,,0.00,642.0,WeatherDisplay:10.37,2013-03-02 18:13:00,
2013-03-02 10:18:00,76.7,32.6,30.19,South,185,5.0,5.0,20,0.00,CLR,,0.00,684.0,WeatherDisplay:10.37,2013-03-02 18:18:00,
2013-03-02 10:23:00,77.5,30.6,30.19,ESE,123,5.8,5.8,18,0.00,CLR,,0.00,700.0,WeatherDisplay:10.37,2013-03-02 18:23:00,
2013-03-02 10:28:00,78.2,31.2,30.19,SSW,208,6.0,6.0,18,0.00,CLR,,0.00,656.0,WeatherDisplay:10.37,2013-03-02 18:28:00,
2013-03-02 10:33:00,78.5,31.4,30.19,SSW,204,5.8,5.8,18,0.00,CLR,,0.00,708.0,WeatherDisplay:10.37,2013-03-02 18:33:00,
2013-03-02 10:38:00,78.7,30.2,30.19,SSW,209,6.9,6.9,17,0.00,CLR,,0.00,705.0,WeatherDisplay:10.37,2013-03-02 18:38:00,
2013-03-02 10:43:00,78.9,31.8,30.19,South,171,5.8,5.8,18,0.00,CLR,,0.00,715.0,WeatherDisplay:10.37,2013-03-02 18:43:00,
2013-03-02 10:48:00,78.8,30.3,30.19,SSW,196,9.2,9.2,17,0.00,CLR,,0.00,724.0,WeatherDisplay:10.37,2013-03-02 18:48:00,
2013-03-02 10:53:00,78.6,28.6,30.19,SSW,211,7.0,7.0,16,0.00,CLR,,0.00,729.0,WeatherDisplay:10.37,2013-03-02 18:53:00,
2013-03-02 10:58:00,78.7,27.1,30.18,SSW,205,8.1,8.1,15,0.00,CLR,,0.00,737.0,WeatherDisplay:10.37,2013-03-02 18:58:00,
2013-03-02 11:03:00,78.5,28.5,30.18,SSW,207,4.6,4.6,16,0.00,CLR,,0.00,744.0,WeatherDisplay:10.37,2013-03-02 19:03:00,
2013-03-02 11:08:00,78.9,27.3,30.18,SSW,205,8.1,8.1,15,0.00,CLR,,0.00,749.0,WeatherDisplay:10.37,2013-03-02 19:08:00,
2013-03-02 11:13:00,79.0,28.9,30.18,SW,229,7.0,7.0,16,0.00,CLR,,0.00,733.0,WeatherDisplay:10.37,2013-03-02 19:13:00,
2013-03-02 11:18:00,79.4,29.3,30.18,SSW,213,6.9,6.9,16,0.00,CLR,,0.00,770.0,WeatherDisplay:10.37,2013-03-02 19:18:00,
2013-03-02 11:23:00,79.6,29.4,30.18,SSW,209,6.9,6.9,16,0.00,CLR,,0.00,759.0,WeatherDisplay:10.37,2013-03-02 19:23:00,
2013-03-02 11:28:00,80.1,28.3,30.17,SSW,209,7.0,7.0,15,0.00,CLR,,0.00,793.0,WeatherDisplay:10.37,2013-03-02 19:28:00,
2013-03-02 11:33:00,80.4,28.5,30.17,SSW,192,5.8,5.8,15,0.00,CLR,,0.00,766.0,WeatherDisplay:10.37,2013-03-02 19:33:00,
2013-03-02 11:38:00,80.5,30.2,30.17,SW,216,6.0,6.0,16,0.00,CLR,,0.00,788.0,WeatherDisplay:10.37,2013-03-02 19:38:00,
2013-03-02 11:43:00,80.7,28.7,30.17,SW,222,7.0,7.0,15,0.00,CLR,,0.00,768.0,WeatherDisplay:10.37,2013-03-02 19:43:00,
2013-03-02 11:48:00,80.9,28.9,30.17,South,173,6.0,6.0,15,0.00,CLR,,0.00,773.0,WeatherDisplay:10.37,2013-03-02 19:48:00,
2013-03-02 11:53:00,81.1,29.1,30.16,SSW,212,5.0,5.0,15,0.00,CLR,,0.00,772.0,WeatherDisplay:10.37,2013-03-02 19:53:00,
2013-03-02 11:58:00,81.4,27.6,30.16,South,176,5.0,5.0,14,0.00,CLR,,0.00,786.0,WeatherDisplay:10.37,2013-03-02 19:58:00,
2013-03-02 12:03:00,81.6,26.0,30.16,SSW,194,5.8,5.8,13,0.00,CLR,,0.00,788.0,WeatherDisplay:10.37,2013-03-02 20:03:00,
2013-03-02 12:08:00,81.8,26.1,30.16,SSW,212,5.0,5.0,13,0.00,CLR,,0.00,793.0,WeatherDisplay:10.37,2013-03-02 20:08:00,
2013-03-02 12:13:00,81.8,24.2,30.15,SSE,167,9.2,9.2,12,0.00,CLR,,0.00,777.0,WeatherDisplay:10.37,2013-03-02 20:13:00,
2013-03-02 12:18:00,82.0,26.3,30.15,SW,218,6.0,6.0,13,0.00,CLR,,0.00,742.0,WeatherDisplay:10.37,2013-03-02 20:18:00,
2013-03-02 12:23:00,82.3,24.6,30.15,SW,223,6.9,6.9,12,0.00,CLR,,0.00,700.0,WeatherDisplay:10.37,2013-03-02 20:23:00,
2013-03-02 12:28:00,82.7,26.8,30.14,SSE,161,10.4,10.4,13,0.00,CLR,,0.00,810.0,WeatherDisplay:10.37,2013-03-02 20:28:00,
2013-03-02 12:33:00,82.7,24.9,30.14,WSW,249,5.8,5.8,12,0.00,CLR,,0.00,807.0,WeatherDisplay:10.37,2013-03-02 20:33:00,
2013-03-02 12:38:00,83.2,27.2,30.14,SW,233,8.1,8.1,13,0.00,CLR,,0.00,759.0,WeatherDisplay:10.37,2013-03-02 20:38:00,
2013-03-02 12:43:00,83.3,25.4,30.13,SSW,209,7.0,7.0,12,0.00,CLR,,0.00,803.0,WeatherDisplay:10.37,2013-03-02 20:43:00,
2013-03-02 12:48:00,82.9,25.1,30.13,SSW,207,8.1,8.1,12,0.00,FEW,,0.00,661.0,WeatherDisplay:10.37,2013-03-02 20:48:00,
2013-03-02 12:53:00,82.6,24.8,30.12,SSW,202,7.0,7.0,12,0.00,CLR,,0.00,763.0,WeatherDisplay:10.37,2013-03-02 20:53:00,
2013-03-02 12:58:00,83.1,23.1,30.12,SW,236,6.9,6.9,11,0.00,FEW,,0.00,619.0,WeatherDisplay:10.37,2013-03-02 20:58:00,
2013-03-02 13:03:00,83.2,23.2,30.12,SSW,200,8.1,8.1,11,0.00,CLR,,0.00,838.0,WeatherDisplay:10.37,2013-03-02 21:03:00,
2013-03-02 13:08:00,83.3,25.4,30.12,SSW,196,8.1,8.1,12,0.00,CLR,,0.00,666.0,WeatherDisplay:10.37,2013-03-02 21:08:00,
2013-03-02 13:13:00,83.3,21.0,30.12,SSW,212,11.5,11.5,10,0.00,SCT,,0.00,527.0,WeatherDisplay:10.37,2013-03-02 21:13:00,
2013-03-02 13:18:00,82.9,23.0,30.11,SSW,207,6.9,6.9,11,0.00,CLR,,0.00,849.0,WeatherDisplay:10.37,2013-03-02 21:18:00,
2013-03-02 13:23:00,83.6,23.5,30.11,SW,221,8.1,8.1,11,0.00,CLR,,0.00,779.0,WeatherDisplay:10.37,2013-03-02 21:23:00,
2013-03-02 13:28:00,83.2,23.2,30.11,SSW,193,9.2,9.2,11,0.00,CLR,,0.00,782.0,WeatherDisplay:10.37,2013-03-02 21:28:00,
2013-03-02 13:33:00,82.8,22.9,30.11,SW,217,9.2,9.2,11,0.00,CLR,,0.00,675.0,WeatherDisplay:10.37,2013-03-02 21:33:00,
2013-03-02 13:38:00,82.7,22.8,30.10,South,171,8.1,8.1,11,0.00,CLR,,0.00,742.0,WeatherDisplay:10.37,2013-03-02 21:38:00,
2013-03-02 13:43:00,82.5,22.7,30.11,SSW,200,8.0,8.0,11,0.00,SCT,,0.00,461.0,WeatherDisplay:10.37,2013-03-02 21:43:00,
2013-03-02 13:48:00,82.6,22.7,30.10,SSW,202,6.9,6.9,11,0.00,SCT,,0.00,383.0,WeatherDisplay:10.37,2013-03-02 21:48:00,
2013-03-02 13:53:00,82.4,24.7,30.10,South,173,10.4,10.4,12,0.00,BKN,,0.00,309.0,WeatherDisplay:10.37,2013-03-02 21:53:00,
2013-03-02 13:58:00,81.9,26.2,30.10,SSW,202,8.1,8.1,13,0.00,SCT,,0.00,364.0,WeatherDisplay:10.37,2013-03-02 21:58:00,
2013-03-02 14:03:00,81.6,26.0,30.09,South,187,8.1,8.1,13,0.00,FEW,,0.00,497.0,WeatherDisplay:10.37,2013-03-02 22:03:00,
2013-03-02 14:08:00,81.3,25.7,30.10,SSW,199,9.2,9.2,13,0.00,FEW,,0.00,517.0,WeatherDisplay:10.37,2013-03-02 22:08:00,
2013-03-02 14:13:00,80.7,25.3,30.09,South,178,8.1,8.1,13,0.00,SCT,,0.00,380.0,WeatherDisplay:10.37,2013-03-02 22:13:00,
2013-03-02 14:18:00,80.4,26.8,30.09,SSW,207,8.1,8.1,14,0.00,CLR,,0.00,714.0,WeatherDisplay:10.37,2013-03-02 22:18:00,
2013-03-02 14:23:00,80.6,27.0,30.09,SSW,200,7.0,7.0,14,0.00,FEW,,0.00,443.0,WeatherDisplay:10.37,2013-03-02 22:23:00,
2013-03-02 14:28:00,80.6,27.0,30.09,SSW,196,5.8,5.8,14,0.00,SCT,,0.00,450.0,WeatherDisplay:10.37,2013-03-02 22:28:00,
2013-03-02 14:33:00,80.9,27.2,30.09,SSW,205,6.9,6.9,14,0.00,FEW,,0.00,517.0,WeatherDisplay:10.37,2013-03-02 22:33:00,
2013-03-02 14:38:00,81.1,27.4,30.09,SW,221,7.0,7.0,14,0.00,CLR,,0.00,529.0,WeatherDisplay:10.37,2013-03-02 22:38:00,
2013-03-02 14:43:00,81.2,29.1,30.09,SW,217,6.9,6.9,15,0.00,CLR,,0.00,568.0,WeatherDisplay:10.37,2013-03-02 22:43:00,
2013-03-02 14:48:00,81.6,29.4,30.08,SSW,210,9.2,9.2,15,0.00,SCT,,0.00,396.0,WeatherDisplay:10.37,2013-03-02 22:48:00,
2013-03-02 14:53:00,81.6,29.4,30.08,West,261,3.5,3.5,15,0.00,CLR,,0.00,643.0,WeatherDisplay:10.37,2013-03-02 22:53:00,
2013-03-02 14:58:00,82.4,33.2,30.08,WNW,296,4.0,4.0,17,0.00,CLR,,0.00,657.0,WeatherDisplay:10.37,2013-03-02 22:58:00,
2013-03-02 15:03:00,82.3,33.1,30.08,West,263,8.1,8.1,17,0.00,CLR,,0.00,617.0,WeatherDisplay:10.37,2013-03-02 23:03:00,
2013-03-02 15:08:00,81.8,32.7,30.08,NW,311,8.1,8.1,17,0.00,CLR,,0.00,418.0,WeatherDisplay:10.37,2013-03-02 23:08:00,
2013-03-02 15:13:00,81.8,34.1,30.08,WSW,240,9.0,9.0,18,0.00,CLR,,0.00,429.0,WeatherDisplay:10.37,2013-03-02 23:13:00,
2013-03-02 15:18:00,81.4,32.4,30.08,WNW,298,7.0,7.0,17,0.00,CLR,,0.00,497.0,WeatherDisplay:10.37,2013-03-02 23:18:00,
2013-03-02 15:23:00,81.4,32.4,30.08,West,269,10.4,10.4,17,0.00,CLR,,0.00,436.0,WeatherDisplay:10.37,2013-03-02 23:23:00,
2013-03-02 15:28:00,81.2,32.2,30.08,WSW,252,6.9,6.9,17,0.00,CLR,,0.00,336.0,WeatherDisplay:10.37,2013-03-02 23:28:00,
2013-03-02 15:34:00,81.0,32.1,30.07,WNW,289,9.2,9.2,17,0.00,SCT,,0.00,214.0,WeatherDisplay:10.37,2013-03-02 23:34:00,
2013-03-02 15:39:00,80.7,33.2,30.07,WSW,251,8.1,8.1,18,0.00,FEW,,0.00,295.0,WeatherDisplay:10.37,2013-03-02 23:39:00,
2013-03-02 15:44:00,80.5,33.1,30.07,WNW,284,8.1,8.1,18,0.00,CLR,,0.00,441.0,WeatherDisplay:10.37,2013-03-02 23:44:00,
2013-03-02 15:49:00,80.6,31.7,30.07,West,273,8.1,8.1,17,0.00,CLR,,0.00,408.0,WeatherDisplay:10.37,2013-03-02 23:49:00,
2013-03-02 15:54:00,81.1,30.6,30.07,WSW,257,6.9,6.9,16,0.00,CLR,,0.00,390.0,WeatherDisplay:10.37,2013-03-02 23:54:00,
2013-03-02 15:59:00,80.8,31.9,30.07,WNW,288,8.1,8.1,17,0.00,CLR,,0.00,288.0,WeatherDisplay:10.37,2013-03-02 23:59:00,
2013-03-02 16:04:00,80.4,30.1,30.06,WSW,257,5.8,5.8,16,0.00,CLR,,0.00,195.0,WeatherDisplay:10.37,2013-03-03 00:04:00,
2013-03-02 16:09:00,80.2,31.4,30.06,West,260,9.0,9.0,17,0.00,CLR,,0.00,378.0,WeatherDisplay:10.37,2013-03-03 00:09:00,
2013-03-02 16:14:00,80.4,31.6,30.07,West,259,6.0,6.0,17,0.00,CLR,,0.00,348.0,WeatherDisplay:10.37,2013-03-03 00:14:00,
2013-03-02 16:19:00,80.1,29.8,30.07,West,279,11.5,11.5,16,0.00,CLR,,0.00,323.0,WeatherDisplay:10.37,2013-03-03 00:19:00,
2013-03-02 16:24:00,79.8,29.6,30.07,West,273,10.4,10.4,16,0.00,CLR,,0.00,294.0,WeatherDisplay:10.37,2013-03-03 00:24:00,
2013-03-02 16:29:00,79.6,30.9,30.07,WNW,282,9.2,9.2,17,0.00,CLR,,0.00,264.0,WeatherDisplay:10.37,2013-03-03 00:29:00,
2013-03-02 16:34:00,79.4,29.3,30.06,West,265,8.1,8.1,16,0.00,CLR,,0.00,223.0,WeatherDisplay:10.37,2013-03-03 00:34:00,
2013-03-02 16:39:00,79.4,29.3,30.06,West,271,10.4,10.4,16,0.00,CLR,,0.00,190.0,WeatherDisplay:10.37,2013-03-03 00:39:00,
2013-03-02 16:44:00,79.3,27.6,30.06,WNW,296,6.9,6.9,15,0.00,CLR,,0.00,183.0,WeatherDisplay:10.37,2013-03-03 00:44:00,
2013-03-02 16:49:00,79.2,29.1,30.06,West,268,6.9,6.9,16,0.00,CLR,,0.00,153.0,WeatherDisplay:10.37,2013-03-03 00:49:00,
2013-03-02 16:54:00,79.3,29.2,30.06,WSW,238,8.1,8.1,16,0.00,CLR,,0.00,116.0,WeatherDisplay:10.37,2013-03-03 00:54:00,
2013-03-02 16:59:00,79.1,29.0,30.06,WSW,252,9.2,9.2,16,0.00,FEW,,0.00,100.0,WeatherDisplay:10.37,2013-03-03 00:59:00,
2013-03-02 17:04:00,78.8,28.8,30.06,West,277,8.1,8.1,16,0.00,CLR,,0.00,91.0,WeatherDisplay:10.37,2013-03-03 01:04:00,
2013-03-02 17:09:00,78.5,27.0,30.06,WSW,246,9.2,9.2,15,0.00,FEW,,0.00,72.0,WeatherDisplay:10.37,2013-03-03 01:09:00,
2013-03-02 17:14:00,78.3,26.8,30.06,West,265,9.2,9.2,15,0.00,FEW,,0.00,60.0,WeatherDisplay:10.37,2013-03-03 01:14:00,
2013-03-02 17:19:00,78.1,26.7,30.06,West,277,6.9,6.9,15,0.00,SCT,,0.00,46.0,WeatherDisplay:10.37,2013-03-03 01:19:00,
2013-03-02 17:24:00,77.7,27.9,30.06,WNW,284,9.2,9.2,16,0.00,SCT,,0.00,33.0,WeatherDisplay:10.37,2013-03-03 01:24:00,
2013-03-02 17:29:00,77.4,26.1,30.06,West,277,6.9,6.9,15,0.00,SCT,,0.00,25.0,WeatherDisplay:10.37,2013-03-03 01:29:00,
2013-03-02 17:34:00,77.1,25.9,30.06,West,273,6.0,6.0,15,0.00,BKN,,0.00,16.0,WeatherDisplay:10.37,2013-03-03 01:34:00,
2013-03-02 17:39:00,76.7,27.1,30.06,West,267,6.0,6.0,16,0.00,BKN,,0.00,9.0,WeatherDisplay:10.37,2013-03-03 01:39:00,
2013-03-02 17:44:00,76.3,28.3,30.06,WNW,293,3.5,3.5,17,0.00,SCT,,0.00,5.0,WeatherDisplay:10.37,2013-03-03 01:44:00,
2013-03-02 17:49:00,76.0,28.0,30.06,West,277,4.6,4.6,17,0.00,CLR,,0.00,0.0,WeatherDisplay:10.37,2013-03-03 01:49:00,
2013-03-02 17:54:00,75.6,29.1,30.07,West,277,1.1,1.1,18,0.00,CLR,,0.00,0.0,WeatherDisplay:10.37,2013-03-03 01:54:00,
2013-03-02 17:59:00,75.2,27.4,30.07,West,263,6.9,6.9,17,0.00,CLR,,0.00,0.0,WeatherDisplay:10.37,2013-03-03 01:59:00,
2013-03-02 18:04:00,74.8,28.4,30.07,West,263,5.0,5.0,18,0.00,CLR,,0.00,0.0,WeatherDisplay:10.37,2013-03-03 02:04:00,
2013-03-02 18:09:00,74.3,28.0,30.07,West,267,3.5,3.5,18,0.00,CLR,,0.00,0.0,WeatherDisplay:10.37,2013-03-03 02:09:00,
2013-03-02 18:14:00,73.8,28.9,30.07,West,263,3.5,3.5,19,0.00,CLR,,0.00,0.0,WeatherDisplay:10.37,2013-03-03 02:14:00,
2013-03-02 18:19:00,73.4,28.6,30.08,WNW,286,6.9,6.9,19,0.00,CLR,,0.00,0.0,WeatherDisplay:10.37,2013-03-03 02:19:00,
2013-03-02 18:24:00,73.0,29.5,30.08,West,277,5.8,5.8,20,0.00,CLR,,0.00,0.0,WeatherDisplay:10.37,2013-03-03 02:24:00,
2013-03-02 18:29:00,72.6,29.2,30.08,WNW,286,5.0,5.0,20,0.00,CLR,,0.00,0.0,WeatherDisplay:10.37,2013-03-03 02:29:00,
2013-03-02 18:34:00,72.3,30.1,30.08,WNW,285,3.5,3.5,21,0.00,CLR,,0.00,0.0,WeatherDisplay:10.37,2013-03-03 02:34:00,
2013-03-02 18:39:00,71.9,29.8,30.08,WNW,285,1.1,1.1,21,0.00,CLR,,0.00,0.0,WeatherDisplay:10.37,2013-03-03 02:39:00,
2013-03-02 18:44:00,71.6,30.7,30.08,WNW,285,2.3,2.3,22,0.00,CLR,,0.00,0.0,WeatherDisplay:10.37,2013-03-03 02:44:00,
2013-03-02 18:49:00,71.2,30.4,30.08,WNW,287,4.0,4.0,22,0.00,CLR,,0.00,0.0,WeatherDisplay:10.37,2013-03-03 02:49:00,
2013-03-02 18:54:00,70.7,28.8,30.08,WNW,300,4.0,4.0,21,0.00,CLR,,0.00,0.0,WeatherDisplay:10.37,2013-03-03 02:54:00,
2013-03-02 18:59:00,70.4,27.4,30.08,WNW,294,4.6,4.6,20,0.00,CLR,,0.00,0.0,WeatherDisplay:10.37,2013-03-03 02:59:00,
2013-03-02 19:04:00,70.1,28.3,30.08,WNW,301,3.5,3.5,21,0.00,CLR,,0.00,0.0,WeatherDisplay:10.37,2013-03-03 03:04:00,
2013-03-02 19:09:00,69.7,29.1,30.08,WNW,301,3.5,3.5,22,0.00,CLR,,0.00,0.0,WeatherDisplay:10.37,2013-03-03 03:09:00,
2013-03-02 19:14:00,69.5,29.0,30.08,WNW,301,2.3,2.3,22,0.00,CLR,,0.00,0.0,WeatherDisplay:10.37,2013-03-03 03:14:00,
2013-03-02 19:19:00,69.1,29.7,30.08,WNW,301,1.1,1.1,23,0.00,CLR,,0.00,0.0,WeatherDisplay:10.37,2013-03-03 03:19:00,
2013-03-02 19:24:00,68.8,29.5,30.08,WNW,301,2.3,2.3,23,0.00,CLR,,0.00,0.0,WeatherDisplay:10.37,2013-03-03 03:24:00,
2013-03-02 19:29:00,68.6,29.3,30.08,WNW,301,3.0,3.0,23,0.00,CLR,,0.00,0.0,WeatherDisplay:10.37,2013-03-03 03:29:00,
2013-03-02 19:34:00,68.3,30.1,30.08,WNW,301,3.5,3.5,24,0.00,CLR,,0.00,0.0,WeatherDisplay:10.37,2013-03-03 03:34:00,
2013-03-02 19:39:00,68.0,29.8,30.08,WNW,301,3.5,3.5,24,0.00,CLR,,0.00,0.0,WeatherDisplay:10.37,2013-03-03 03:39:00,
2013-03-02 19:44:00,67.7,30.6,30.09,WNW,292,5.0,5.0,25,0.00,CLR,,0.00,0.0,WeatherDisplay:10.37,2013-03-03 03:44:00,
2013-03-02 19:49:00,67.5,30.4,30.09,WNW,292,1.1,1.1,25,0.00,CLR,,0.00,0.0,WeatherDisplay:10.37,2013-03-03 03:49:00,
2013-03-02 19:54:00,67.2,32.1,30.09,WNW,292,2.3,2.3,27,0.00,CLR,,0.00,0.0,WeatherDisplay:10.37,2013-03-03 03:54:00,
2013-03-02 19:59:00,66.9,31.8,30.09,WNW,293,3.5,3.5,27,0.00,CLR,,0.00,0.0,WeatherDisplay:10.37,2013-03-03 03:59:00,
2013-03-02 20:04:00,66.8,32.6,30.09,WNW,290,4.6,4.6,28,0.00,CLR,,0.00,0.0,WeatherDisplay:10.37,2013-03-03 04:04:00,
2013-03-02 20:09:00,66.5,33.2,30.09,WNW,290,3.5,3.5,29,0.00,CLR,,0.00,0.0,WeatherDisplay:10.37,2013-03-03 04:09:00,
2013-03-02 20:14:00,66.3,33.9,30.09,WNW,288,3.5,3.5,30,0.00,CLR,,0.00,0.0,WeatherDisplay:10.37,2013-03-03 04:14:00,
2013-03-02 20:19:00,66.0,33.7,30.09,WNW,288,2.3,2.3,30,0.00,CLR,,0.00,0.0,WeatherDisplay:10.37,2013-03-03 04:19:00,
2013-03-02 20:24:00,65.8,34.3,30.10,WNW,288,3.5,3.5,31,0.00,CLR,,0.00,0.0,WeatherDisplay:10.37,2013-03-03 04:24:00,
2013-03-02 20:29:00,65.6,34.9,30.10,WNW,288,1.1,0.0,32,0.00,CLR,,0.00,0.0,WeatherDisplay:10.37,2013-03-03 04:29:00,
2013-03-02 20:34:00,65.4,35.5,30.10,WNW,288,0.0,0.0,33,0.00,CLR,,0.00,0.0,WeatherDisplay:10.37,2013-03-03 04:34:00,
2013-03-02 20:39:00,65.1,36.0,30.10,WNW,288,2.3,2.3,34,0.00,CLR,,0.00,0.0,WeatherDisplay:10.37,2013-03-03 04:39:00,
2013-03-02 20:44:00,64.9,36.6,30.10,WNW,288,1.1,1.1,35,0.00,CLR,,0.00,0.0,WeatherDisplay:10.37,2013-03-03 04:44:00,
2013-03-02 20:49:00,64.7,36.4,30.10,WNW,288,0.0,0.0,35,0.00,CLR,,0.00,0.0,WeatherDisplay:10.37,2013-03-03 04:49:00,
2013-03-02 20:54:00,64.3,36.8,30.10,WNW,288,1.0,1.0,36,0.00,CLR,,0.00,0.0,WeatherDisplay:10.37,2013-03-03 04:54:00,
2013-03-02 20:59:00,63.9,36.4,30.10,WNW,288,0.0,0.0,36,0.00,CLR,,0.00,0.0,WeatherDisplay:10.37,2013-03-03 04:59:00,
2013-03-02 21:00:00,63.9,36.4,30.10,WNW,288,0.0,0.0,36,0.00,CLR,,0.00,0.0,WeatherDisplay:10.37,2013-03-03 05:00:00,
2013-03-02 21:05:00,63.6,36.1,30.10,WNW,288,1.1,0.0,36,0.00,CLR,,0.00,0.0,WeatherDisplay:10.37,2013-03-03 05:05:00,
2013-03-02 21:10:00,63.4,36.7,30.10,WNW,288,0.0,0.0,37,0.00,CLR,,0.00,0.0,WeatherDisplay:10.37,2013-03-03 05:10:00,
2013-03-02 21:15:00,63.1,37.1,30.10,WNW,288,0.0,0.0,38,0.00,CLR,,0.00,0.0,WeatherDisplay:10.37,2013-03-03 05:15:00,
2013-03-02 21:20:00,62.7,36.7,30.10,WNW,288,0.0,0.0,38,0.00,CLR,,0.00,0.0,WeatherDisplay:10.37,2013-03-03 05:20:00,
2013-03-02 21:25:00,62.4,36.4,30.11,WNW,288,0.0,0.0,38,0.00,CLR,,0.00,0.0,WeatherDisplay:10.37,2013-03-03 05:25:00,
2013-03-02 21:30:00,62.2,36.9,30.11,WNW,288,1.1,1.1,39,0.00,CLR,,0.00,0.0,WeatherDisplay:10.37,2013-03-03 05:30:00,
2013-03-02 21:35:00,62.1,36.8,30.11,WNW,288,1.1,1.1,39,0.00,CLR,,0.00,0.0,WeatherDisplay:10.37,2013-03-03 05:35:00,
2013-03-02 21:40:00,62.2,38.2,30.11,WNW,288,3.0,3.0,41,0.00,CLR,,0.00,0.0,WeatherDisplay:10.37,2013-03-03 05:40:00,
2013-03-02 21:46:00,62.4,41.3,30.11,West,266,3.5,3.5,46,0.00,CLR,,0.00,0.0,WeatherDisplay:10.37,2013-03-03 05:46:00,
2013-03-02 21:51:00,62.4,42.4,30.11,West,265,3.5,3.5,48,0.00,CLR,,0.00,0.0,WeatherDisplay:10.37,2013-03-03 05:51:00,
2013-03-02 21:56:00,62.2,43.8,30.11,West,265,3.5,3.5,51,0.00,CLR,,0.00,0.0,WeatherDisplay:10.37,2013-03-03 05:56:00,
2013-03-02 22:01:00,62.0,43.7,30.11,West,265,0.0,0.0,51,0.00,CLR,,0.00,0.0,WeatherDisplay:10.37,2013-03-03 06:01:00,
2013-03-02 22:06:00,61.5,43.7,30.10,West,265,1.1,1.1,52,0.00,CLR,,0.00,0.0,WeatherDisplay:10.37,2013-03-03 06:06:00,
2013-03-02 22:11:00,61.1,43.3,30.10,West,265,0.0,0.0,52,0.00,CLR,,0.00,0.0,WeatherDisplay:10.37,2013-03-03 06:11:00,
2013-03-02 22:16:00,60.7,43.5,30.10,West,265,0.0,0.0,53,0.00,CLR,,0.00,0.0,WeatherDisplay:10.37,2013-03-03 06:16:00,
2013-03-02 22:21:00,60.3,43.6,30.10,West,265,1.1,0.0,54,0.00,CLR,,0.00,0.0,WeatherDisplay:10.37,2013-03-03 06:21:00,
2013-03-02 22:26:00,60.1,43.4,30.10,West,265,0.0,0.0,54,0.00,CLR,,0.00,0.0,WeatherDisplay:10.37,2013-03-03 06:26:00,
2013-03-02 22:31:00,59.9,43.7,30.10,West,265,0.0,0.0,55,0.00,CLR,,0.00,0.0,WeatherDisplay:10.37,2013-03-03 06:31:00,
2013-03-02 22:36:00,59.8,44.5,30.10,West,265,0.0,0.0,57,0.00,CLR,,0.00,0.0,WeatherDisplay:10.37,2013-03-03 06:36:00,
2013-03-02 22:41:00,59.7,44.4,30.10,West,265,0.0,0.0,57,0.00,CLR,,0.00,0.0,WeatherDisplay:10.37,2013-03-03 06:41:00,
2013-03-02 22:46:00,59.5,44.2,30.10,West,265,0.0,0.0,57,0.00,CLR,,0.00,0.0,WeatherDisplay:10.37,2013-03-03 06:46:00,
2013-03-02 22:51:00,59.4,44.6,30.10,West,265,0.0,0.0,58,0.00,CLR,,0.00,0.0,WeatherDisplay:10.37,2013-03-03 06:51:00,
2013-03-02 22:56:00,59.3,45.8,30.10,West,265,1.1,1.1,61,0.00,CLR,,0.00,0.0,WeatherDisplay:10.37,2013-03-03 06:56:00,
2013-03-02 23:01:00,59.3,46.7,30.10,West,265,0.0,0.0,63,0.00,CLR,,0.00,0.0,WeatherDisplay:10.37,2013-03-03 07:01:00,
2013-03-02 23:06:00,59.1,46.9,30.09,West,265,1.1,0.0,64,0.00,CLR,,0.00,0.0,WeatherDisplay:10.37,2013-03-03 07:06:00,
2013-03-02 23:11:00,59.1,47.7,30.09,West,265,2.3,0.0,66,0.00,CLR,,0.00,0.0,WeatherDisplay:10.37,2013-03-03 07:11:00,
2013-03-02 23:16:00,58.9,47.6,30.10,West,265,0.0,0.0,66,0.00,CLR,,0.00,0.0,WeatherDisplay:10.37,2013-03-03 07:16:00,
2013-03-02 23:21:00,58.8,47.9,30.10,West,265,0.0,0.0,67,0.00,CLR,,0.00,0.0,WeatherDisplay:10.37,2013-03-03 07:21:00,
2013-03-02 23:26:00,58.7,47.8,30.10,West,265,0.0,0.0,67,0.00,CLR,,0.00,0.0,WeatherDisplay:10.37,2013-03-03 07:26:00,
2013-03-02 23:31:00,58.5,47.2,30.10,West,265,0.0,0.0,66,0.00,CLR,,0.00,0.0,WeatherDisplay:10.37,2013-03-03 07:31:00,
2013-03-02 23:36:00,58.1,47.2,30.10,West,265,1.0,1.0,67,0.00,CLR,,0.00,0.0,WeatherDisplay:10.37,2013-03-03 07:36:00,
2013-03-02 23:41:00,57.7,46.8,30.09,West,265,1.1,1.1,67,0.00,CLR,,0.00,0.0,WeatherDisplay:10.37,2013-03-03 07:41:00,
2013-03-02 23:46:00,57.4,46.9,30.10,West,265,0.0,0.0,68,0.00,CLR,,0.00,0.0,WeatherDisplay:10.37,2013-03-03 07:46:00,
2013-03-02 23:51:00,57.1,46.6,30.10,West,265,0.0,0.0,68,0.00,CLR,,0.00,0.0,WeatherDisplay:10.37,2013-03-03 07:51:00,
2013-03-02 23:56:00,56.9,46.4,30.10,West,265,0.0,0.0,68,0.00,CLR,,0.00,0.0,WeatherDisplay:10.37,2013-03-03 07:56:00,